sensor_id;sensor_type;location;lat;lon;timestamp;P1;durP1;ratioP1;P2;durP2;ratioP2
17842;SDS011;69286;48.222;16.332;2023-04-24T00:01:03;7.87;;;5.03;;
17842;SDS011;69286;48.222;16.332;2023-04-24T00:03:32;9.43;;;4.83;;
17842;SDS011;69286;48.222;16.332;2023-04-24T00:06:01;6.90;;;4.43;;
17842;SDS011;69286;48.222;16.332;2023-04-24T00:08:28;11.60;;;5.27;;
17842;SDS011;69286;48.222;16.332;2023-04-24T00:10:55;6.47;;;4.87;;
17842;SDS011;69286;48.222;16.332;2023-04-24T00:13:22;6.10;;;4.63;;
17842;SDS011;69286;48.222;16.332;2023-04-24T00:15:49;6.27;;;4.90;;
17842;SDS011;69286;48.222;16.332;2023-04-24T00:18:15;6.20;;;4.37;;
17842;SDS011;69286;48.222;16.332;2023-04-24T00:20:43;7.07;;;4.70;;
17842;SDS011;69286;48.222;16.332;2023-04-24T00:23:13;8.00;;;5.30;;
17842;SDS011;69286;48.222;16.332;2023-04-24T00:25:40;7.87;;;5.50;;
17842;SDS011;69286;48.222;16.332;2023-04-24T00:28:07;8.60;;;4.80;;
17842;SDS011;69286;48.222;16.332;2023-04-24T00:30:34;6.93;;;5.23;;
17842;SDS011;69286;48.222;16.332;2023-04-24T00:33:01;7.83;;;4.53;;
17842;SDS011;69286;48.222;16.332;2023-04-24T00:35:28;6.97;;;4.47;;
17842;SDS011;69286;48.222;16.332;2023-04-24T00:37:55;5.87;;;5.07;;
17842;SDS011;69286;48.222;16.332;2023-04-24T00:40:23;6.57;;;4.60;;
17842;SDS011;69286;48.222;16.332;2023-04-24T00:42:50;8.37;;;5.20;;
17842;SDS011;69286;48.222;16.332;2023-04-24T00:45:17;7.13;;;4.43;;
17842;SDS011;69286;48.222;16.332;2023-04-24T00:47:44;7.57;;;5.30;;
17842;SDS011;69286;48.222;16.332;2023-04-24T00:50:12;6.40;;;5.20;;
17842;SDS011;69286;48.222;16.332;2023-04-24T00:52:41;7.50;;;4.83;;
17842;SDS011;69286;48.222;16.332;2023-04-24T00:55:08;6.90;;;4.93;;
17842;SDS011;69286;48.222;16.332;2023-04-24T00:57:37;7.10;;;5.33;;
17842;SDS011;69286;48.222;16.332;2023-04-24T01:00:04;5.80;;;5.00;;
17842;SDS011;69286;48.222;16.332;2023-04-24T01:02:35;11.37;;;5.73;;
17842;SDS011;69286;48.222;16.332;2023-04-24T01:05:05;8.17;;;5.57;;
17842;SDS011;69286;48.222;16.332;2023-04-24T01:07:34;7.87;;;5.43;;
17842;SDS011;69286;48.222;16.332;2023-04-24T01:10:01;8.20;;;5.10;;
17842;SDS011;69286;48.222;16.332;2023-04-24T01:12:29;7.33;;;5.60;;
17842;SDS011;69286;48.222;16.332;2023-04-24T01:14:58;8.07;;;5.70;;
17842;SDS011;69286;48.222;16.332;2023-04-24T01:17:25;7.90;;;4.90;;
17842;SDS011;69286;48.222;16.332;2023-04-24T01:19:52;5.23;;;4.60;;
17842;SDS011;69286;48.222;16.332;2023-04-24T01:22:23;8.20;;;4.97;;
17842;SDS011;69286;48.222;16.332;2023-04-24T01:24:50;7.00;;;5.40;;
17842;SDS011;69286;48.222;16.332;2023-04-24T01:27:18;7.83;;;5.20;;
17842;SDS011;69286;48.222;16.332;2023-04-24T01:29:46;6.60;;;4.63;;
17842;SDS011;69286;48.222;16.332;2023-04-24T01:32:14;9.03;;;5.20;;
17842;SDS011;69286;48.222;16.332;2023-04-24T01:34:41;6.17;;;4.70;;
17842;SDS011;69286;48.222;16.332;2023-04-24T01:37:11;7.10;;;4.80;;
17842;SDS011;69286;48.222;16.332;2023-04-24T01:39:40;6.83;;;4.43;;
17842;SDS011;69286;48.222;16.332;2023-04-24T01:42:07;8.47;;;4.97;;
17842;SDS011;69286;48.222;16.332;2023-04-24T01:44:34;7.27;;;4.63;;
17842;SDS011;69286;48.222;16.332;2023-04-24T01:47:01;13.47;;;5.03;;
17842;SDS011;69286;48.222;16.332;2023-04-24T01:49:28;10.20;;;5.10;;
17842;SDS011;69286;48.222;16.332;2023-04-24T01:51:56;13.33;;;5.03;;
17842;SDS011;69286;48.222;16.332;2023-04-24T01:54:22;7.17;;;5.00;;
17842;SDS011;69286;48.222;16.332;2023-04-24T01:56:51;6.63;;;5.47;;
17842;SDS011;69286;48.222;16.332;2023-04-24T01:59:18;8.60;;;5.03;;
17842;SDS011;69286;48.222;16.332;2023-04-24T02:01:47;7.27;;;5.37;;
17842;SDS011;69286;48.222;16.332;2023-04-24T02:04:14;13.20;;;5.50;;
17842;SDS011;69286;48.222;16.332;2023-04-24T02:06:41;9.77;;;5.87;;
17842;SDS011;69286;48.222;16.332;2023-04-24T02:09:08;6.53;;;4.67;;
17842;SDS011;69286;48.222;16.332;2023-04-24T02:11:35;10.10;;;5.80;;
17842;SDS011;69286;48.222;16.332;2023-04-24T02:14:04;9.73;;;5.07;;
17842;SDS011;69286;48.222;16.332;2023-04-24T02:16:31;8.00;;;4.80;;
17842;SDS011;69286;48.222;16.332;2023-04-24T02:18:58;5.80;;;4.90;;
17842;SDS011;69286;48.222;16.332;2023-04-24T02:21:25;6.10;;;4.43;;
17842;SDS011;69286;48.222;16.332;2023-04-24T02:23:53;5.33;;;4.00;;
17842;SDS011;69286;48.222;16.332;2023-04-24T02:26:20;5.67;;;4.10;;
17842;SDS011;69286;48.222;16.332;2023-04-24T02:28:47;5.23;;;3.73;;
17842;SDS011;69286;48.222;16.332;2023-04-24T02:31:15;4.57;;;3.90;;
17842;SDS011;69286;48.222;16.332;2023-04-24T02:33:42;4.80;;;3.97;;
17842;SDS011;69286;48.222;16.332;2023-04-24T02:36:09;4.10;;;3.57;;
17842;SDS011;69286;48.222;16.332;2023-04-24T02:38:36;4.67;;;3.70;;
17842;SDS011;69286;48.222;16.332;2023-04-24T02:41:03;7.80;;;3.97;;
17842;SDS011;69286;48.222;16.332;2023-04-24T02:43:31;4.93;;;4.10;;
17842;SDS011;69286;48.222;16.332;2023-04-24T02:45:58;5.90;;;3.90;;
17842;SDS011;69286;48.222;16.332;2023-04-24T02:48:27;5.13;;;3.93;;
17842;SDS011;69286;48.222;16.332;2023-04-24T02:50:54;6.17;;;3.80;;
17842;SDS011;69286;48.222;16.332;2023-04-24T02:53:22;4.90;;;3.77;;
17842;SDS011;69286;48.222;16.332;2023-04-24T02:55:49;4.80;;;3.40;;
17842;SDS011;69286;48.222;16.332;2023-04-24T02:58:16;6.17;;;3.50;;
17842;SDS011;69286;48.222;16.332;2023-04-24T03:00:45;5.67;;;3.63;;
17842;SDS011;69286;48.222;16.332;2023-04-24T03:03:12;3.80;;;3.40;;
17842;SDS011;69286;48.222;16.332;2023-04-24T03:05:41;5.83;;;3.60;;
17842;SDS011;69286;48.222;16.332;2023-04-24T03:08:08;4.10;;;3.70;;
17842;SDS011;69286;48.222;16.332;2023-04-24T03:10:35;4.10;;;3.70;;
17842;SDS011;69286;48.222;16.332;2023-04-24T03:13:02;6.67;;;3.90;;
17842;SDS011;69286;48.222;16.332;2023-04-24T03:15:29;6.83;;;3.97;;
17842;SDS011;69286;48.222;16.332;2023-04-24T03:17:56;4.10;;;3.50;;
17842;SDS011;69286;48.222;16.332;2023-04-24T03:20:23;4.03;;;3.60;;
17842;SDS011;69286;48.222;16.332;2023-04-24T03:22:52;5.07;;;4.03;;
17842;SDS011;69286;48.222;16.332;2023-04-24T03:25:19;6.67;;;3.43;;
17842;SDS011;69286;48.222;16.332;2023-04-24T03:27:46;3.63;;;3.23;;
17842;SDS011;69286;48.222;16.332;2023-04-24T03:30:13;4.97;;;4.00;;
17842;SDS011;69286;48.222;16.332;2023-04-24T03:32:40;4.77;;;3.60;;
17842;SDS011;69286;48.222;16.332;2023-04-24T03:35:07;4.77;;;3.93;;
17842;SDS011;69286;48.222;16.332;2023-04-24T03:37:34;4.27;;;3.80;;
17842;SDS011;69286;48.222;16.332;2023-04-24T03:40:03;5.53;;;3.80;;
17842;SDS011;69286;48.222;16.332;2023-04-24T03:42:32;4.27;;;3.80;;
17842;SDS011;69286;48.222;16.332;2023-04-24T03:44:59;4.40;;;3.57;;
17842;SDS011;69286;48.222;16.332;2023-04-24T03:47:25;4.07;;;3.60;;
17842;SDS011;69286;48.222;16.332;2023-04-24T03:49:52;5.50;;;4.50;;
17842;SDS011;69286;48.222;16.332;2023-04-24T03:52:20;3.77;;;3.30;;
17842;SDS011;69286;48.222;16.332;2023-04-24T03:54:47;6.77;;;3.27;;
17842;SDS011;69286;48.222;16.332;2023-04-24T03:57:16;3.53;;;3.23;;
17842;SDS011;69286;48.222;16.332;2023-04-24T03:59:43;5.77;;;3.50;;
17842;SDS011;69286;48.222;16.332;2023-04-24T04:02:09;4.90;;;3.50;;
17842;SDS011;69286;48.222;16.332;2023-04-24T04:04:36;3.50;;;3.20;;
17842;SDS011;69286;48.222;16.332;2023-04-24T04:07:03;3.40;;;3.10;;
17842;SDS011;69286;48.222;16.332;2023-04-24T04:09:30;5.00;;;3.67;;
17842;SDS011;69286;48.222;16.332;2023-04-24T04:11:58;3.63;;;3.27;;
17842;SDS011;69286;48.222;16.332;2023-04-24T04:14:26;5.03;;;3.43;;
17842;SDS011;69286;48.222;16.332;2023-04-24T04:16:53;7.07;;;3.40;;
17842;SDS011;69286;48.222;16.332;2023-04-24T04:19:20;4.23;;;3.00;;
17842;SDS011;69286;48.222;16.332;2023-04-24T04:21:47;4.57;;;3.13;;
17842;SDS011;69286;48.222;16.332;2023-04-24T04:24:18;3.37;;;2.83;;
17842;SDS011;69286;48.222;16.332;2023-04-24T04:26:45;4.50;;;3.00;;
17842;SDS011;69286;48.222;16.332;2023-04-24T04:29:16;6.00;;;3.00;;
17842;SDS011;69286;48.222;16.332;2023-04-24T04:31:44;3.73;;;2.93;;
17842;SDS011;69286;48.222;16.332;2023-04-24T04:34:11;3.20;;;2.90;;
17842;SDS011;69286;48.222;16.332;2023-04-24T04:36:39;3.00;;;2.80;;
17842;SDS011;69286;48.222;16.332;2023-04-24T04:39:06;3.03;;;2.67;;
17842;SDS011;69286;48.222;16.332;2023-04-24T04:41:33;3.87;;;2.90;;
17842;SDS011;69286;48.222;16.332;2023-04-24T04:44:01;3.13;;;2.87;;
17842;SDS011;69286;48.222;16.332;2023-04-24T04:46:29;3.13;;;2.73;;
17842;SDS011;69286;48.222;16.332;2023-04-24T04:49:00;3.73;;;2.70;;
17842;SDS011;69286;48.222;16.332;2023-04-24T04:51:27;3.03;;;2.53;;
17842;SDS011;69286;48.222;16.332;2023-04-24T04:53:55;5.40;;;2.80;;
17842;SDS011;69286;48.222;16.332;2023-04-24T04:56:22;4.30;;;2.70;;
17842;SDS011;69286;48.222;16.332;2023-04-24T04:58:49;2.90;;;2.60;;
17842;SDS011;69286;48.222;16.332;2023-04-24T05:01:16;4.47;;;2.73;;
17842;SDS011;69286;48.222;16.332;2023-04-24T05:03:43;5.17;;;2.77;;
17842;SDS011;69286;48.222;16.332;2023-04-24T05:06:11;5.80;;;2.60;;
17842;SDS011;69286;48.222;16.332;2023-04-24T05:08:38;3.33;;;2.60;;
17842;SDS011;69286;48.222;16.332;2023-04-24T05:11:05;2.93;;;2.63;;
17842;SDS011;69286;48.222;16.332;2023-04-24T05:13:33;2.83;;;2.40;;
17842;SDS011;69286;48.222;16.332;2023-04-24T05:16:00;2.47;;;2.27;;
17842;SDS011;69286;48.222;16.332;2023-04-24T05:18:27;6.87;;;2.73;;
17842;SDS011;69286;48.222;16.332;2023-04-24T05:20:54;3.37;;;2.50;;
17842;SDS011;69286;48.222;16.332;2023-04-24T05:23:22;3.53;;;2.87;;
17842;SDS011;69286;48.222;16.332;2023-04-24T05:25:49;2.30;;;2.13;;
17842;SDS011;69286;48.222;16.332;2023-04-24T05:28:16;3.73;;;2.37;;
17842;SDS011;69286;48.222;16.332;2023-04-24T05:30:43;2.10;;;2.00;;
17842;SDS011;69286;48.222;16.332;2023-04-24T05:33:10;2.30;;;2.10;;
17842;SDS011;69286;48.222;16.332;2023-04-24T05:35:39;3.40;;;2.70;;
17842;SDS011;69286;48.222;16.332;2023-04-24T05:38:10;3.03;;;2.40;;
17842;SDS011;69286;48.222;16.332;2023-04-24T05:40:39;2.93;;;2.30;;
17842;SDS011;69286;48.222;16.332;2023-04-24T05:43:06;3.07;;;2.33;;
17842;SDS011;69286;48.222;16.332;2023-04-24T05:45:33;17.70;;;2.60;;
17842;SDS011;69286;48.222;16.332;2023-04-24T05:48:01;2.77;;;2.10;;
17842;SDS011;69286;48.222;16.332;2023-04-24T05:50:28;3.07;;;2.27;;
17842;SDS011;69286;48.222;16.332;2023-04-24T05:52:55;2.67;;;2.40;;
17842;SDS011;69286;48.222;16.332;2023-04-24T05:55:23;4.03;;;3.13;;
17842;SDS011;69286;48.222;16.332;2023-04-24T05:57:52;8.27;;;4.93;;
17842;SDS011;69286;48.222;16.332;2023-04-24T06:00:19;3.73;;;2.60;;
17842;SDS011;69286;48.222;16.332;2023-04-24T06:02:46;5.80;;;3.43;;
17842;SDS011;69286;48.222;16.332;2023-04-24T06:05:13;5.67;;;3.17;;
17842;SDS011;69286;48.222;16.332;2023-04-24T06:07:40;2.77;;;2.37;;
17842;SDS011;69286;48.222;16.332;2023-04-24T06:10:08;5.07;;;3.50;;
17842;SDS011;69286;48.222;16.332;2023-04-24T06:12:36;4.27;;;2.40;;
17842;SDS011;69286;48.222;16.332;2023-04-24T06:15:04;5.07;;;3.50;;
17842;SDS011;69286;48.222;16.332;2023-04-24T06:17:33;2.50;;;2.07;;
17842;SDS011;69286;48.222;16.332;2023-04-24T06:20:00;3.60;;;2.80;;
17842;SDS011;69286;48.222;16.332;2023-04-24T06:22:29;3.57;;;2.67;;
17842;SDS011;69286;48.222;16.332;2023-04-24T06:24:56;3.90;;;2.67;;
17842;SDS011;69286;48.222;16.332;2023-04-24T06:27:23;3.73;;;2.80;;
17842;SDS011;69286;48.222;16.332;2023-04-24T06:29:50;3.57;;;2.57;;
17842;SDS011;69286;48.222;16.332;2023-04-24T06:32:21;2.97;;;2.40;;
17842;SDS011;69286;48.222;16.332;2023-04-24T06:34:48;3.27;;;2.60;;
17842;SDS011;69286;48.222;16.332;2023-04-24T06:37:17;3.00;;;2.43;;
17842;SDS011;69286;48.222;16.332;2023-04-24T06:39:44;8.60;;;2.50;;
17842;SDS011;69286;48.222;16.332;2023-04-24T06:42:11;3.13;;;2.40;;
17842;SDS011;69286;48.222;16.332;2023-04-24T06:44:38;3.00;;;2.20;;
17842;SDS011;69286;48.222;16.332;2023-04-24T06:47:07;2.40;;;2.20;;
17842;SDS011;69286;48.222;16.332;2023-04-24T06:49:36;2.27;;;2.00;;
17842;SDS011;69286;48.222;16.332;2023-04-24T06:52:03;2.20;;;2.00;;
17842;SDS011;69286;48.222;16.332;2023-04-24T06:54:31;3.83;;;1.90;;
17842;SDS011;69286;48.222;16.332;2023-04-24T06:56:58;2.20;;;2.00;;
17842;SDS011;69286;48.222;16.332;2023-04-24T06:59:27;2.00;;;1.83;;
17842;SDS011;69286;48.222;16.332;2023-04-24T07:01:54;3.33;;;2.10;;
17842;SDS011;69286;48.222;16.332;2023-04-24T07:04:23;2.10;;;2.00;;
17842;SDS011;69286;48.222;16.332;2023-04-24T07:06:51;2.83;;;2.30;;
17842;SDS011;69286;48.222;16.332;2023-04-24T07:09:21;3.83;;;2.03;;
17842;SDS011;69286;48.222;16.332;2023-04-24T07:11:48;4.20;;;2.03;;
17842;SDS011;69286;48.222;16.332;2023-04-24T07:14:16;2.63;;;1.87;;
17842;SDS011;69286;48.222;16.332;2023-04-24T07:16:43;3.60;;;1.90;;
17842;SDS011;69286;48.222;16.332;2023-04-24T07:19:11;2.40;;;1.93;;
17842;SDS011;69286;48.222;16.332;2023-04-24T07:21:38;5.23;;;2.00;;
17842;SDS011;69286;48.222;16.332;2023-04-24T07:24:06;2.23;;;1.97;;
17842;SDS011;69286;48.222;16.332;2023-04-24T07:26:36;3.80;;;2.27;;
17842;SDS011;69286;48.222;16.332;2023-04-24T07:29:07;2.70;;;1.87;;
17842;SDS011;69286;48.222;16.332;2023-04-24T07:31:34;2.70;;;1.93;;
17842;SDS011;69286;48.222;16.332;2023-04-24T07:34:01;3.43;;;1.97;;
17842;SDS011;69286;48.222;16.332;2023-04-24T07:36:28;4.87;;;2.00;;
17842;SDS011;69286;48.222;16.332;2023-04-24T07:38:55;2.93;;;1.77;;
17842;SDS011;69286;48.222;16.332;2023-04-24T07:41:23;1.73;;;1.63;;
17842;SDS011;69286;48.222;16.332;2023-04-24T07:43:52;2.00;;;1.80;;
17842;SDS011;69286;48.222;16.332;2023-04-24T07:46:20;1.77;;;1.67;;
17842;SDS011;69286;48.222;16.332;2023-04-24T07:48:48;2.57;;;2.10;;
17842;SDS011;69286;48.222;16.332;2023-04-24T07:51:15;2.20;;;2.00;;
17842;SDS011;69286;48.222;16.332;2023-04-24T07:53:42;2.40;;;2.07;;
17842;SDS011;69286;48.222;16.332;2023-04-24T07:56:10;2.60;;;1.93;;
17842;SDS011;69286;48.222;16.332;2023-04-24T07:58:38;3.27;;;1.93;;
17842;SDS011;69286;48.222;16.332;2023-04-24T08:01:05;4.10;;;1.90;;
17842;SDS011;69286;48.222;16.332;2023-04-24T08:03:32;2.17;;;1.93;;
17842;SDS011;69286;48.222;16.332;2023-04-24T08:05:59;9.80;;;2.33;;
17842;SDS011;69286;48.222;16.332;2023-04-24T08:08:26;2.57;;;2.10;;
17842;SDS011;69286;48.222;16.332;2023-04-24T08:10:53;2.60;;;2.37;;
17842;SDS011;69286;48.222;16.332;2023-04-24T08:13:20;2.73;;;2.10;;
17842;SDS011;69286;48.222;16.332;2023-04-24T08:15:49;2.23;;;2.03;;
17842;SDS011;69286;48.222;16.332;2023-04-24T08:18:16;3.17;;;2.17;;
17842;SDS011;69286;48.222;16.332;2023-04-24T08:20:43;3.27;;;2.33;;
17842;SDS011;69286;48.222;16.332;2023-04-24T08:23:11;1.80;;;1.70;;
17842;SDS011;69286;48.222;16.332;2023-04-24T08:25:38;2.20;;;1.83;;
17842;SDS011;69286;48.222;16.332;2023-04-24T08:28:06;2.87;;;1.63;;
17842;SDS011;69286;48.222;16.332;2023-04-24T08:30:35;1.73;;;1.63;;
17842;SDS011;69286;48.222;16.332;2023-04-24T08:33:04;2.90;;;1.60;;
17842;SDS011;69286;48.222;16.332;2023-04-24T08:35:32;1.90;;;1.60;;
17842;SDS011;69286;48.222;16.332;2023-04-24T08:37:59;6.57;;;1.63;;
17842;SDS011;69286;48.222;16.332;2023-04-24T08:40:27;2.20;;;1.30;;
17842;SDS011;69286;48.222;16.332;2023-04-24T08:42:55;2.03;;;1.47;;
17842;SDS011;69286;48.222;16.332;2023-04-24T08:45:22;2.30;;;1.30;;
17842;SDS011;69286;48.222;16.332;2023-04-24T08:47:49;1.63;;;1.53;;
17842;SDS011;69286;48.222;16.332;2023-04-24T08:50:19;1.60;;;1.50;;
17842;SDS011;69286;48.222;16.332;2023-04-24T08:52:47;1.90;;;1.30;;
17842;SDS011;69286;48.222;16.332;2023-04-24T08:55:18;2.87;;;1.50;;
17842;SDS011;69286;48.222;16.332;2023-04-24T08:57:45;1.40;;;1.30;;
17842;SDS011;69286;48.222;16.332;2023-04-24T09:00:17;1.30;;;1.30;;
17842;SDS011;69286;48.222;16.332;2023-04-24T09:02:45;3.17;;;1.40;;
17842;SDS011;69286;48.222;16.332;2023-04-24T09:05:16;2.63;;;1.20;;
17842;SDS011;69286;48.222;16.332;2023-04-24T09:07:46;1.93;;;1.73;;
17842;SDS011;69286;48.222;16.332;2023-04-24T09:10:19;2.23;;;1.70;;
17842;SDS011;69286;48.222;16.332;2023-04-24T09:12:47;2.23;;;2.10;;
17842;SDS011;69286;48.222;16.332;2023-04-24T09:15:16;2.93;;;2.33;;
17842;SDS011;69286;48.222;16.332;2023-04-24T09:17:43;2.20;;;2.00;;
17842;SDS011;69286;48.222;16.332;2023-04-24T09:20:10;1.60;;;1.50;;
17842;SDS011;69286;48.222;16.332;2023-04-24T09:22:37;2.60;;;1.13;;
17842;SDS011;69286;48.222;16.332;2023-04-24T09:25:07;4.43;;;1.30;;
17842;SDS011;69286;48.222;16.332;2023-04-24T09:27:41;1.20;;;1.20;;
17842;SDS011;69286;48.222;16.332;2023-04-24T09:30:10;3.87;;;1.20;;
17842;SDS011;69286;48.222;16.332;2023-04-24T09:32:37;1.33;;;1.23;;
17842;SDS011;69286;48.222;16.332;2023-04-24T09:35:05;1.33;;;1.23;;
17842;SDS011;69286;48.222;16.332;2023-04-24T09:37:45;3.80;;;1.27;;
17842;SDS011;69286;48.222;16.332;2023-04-24T09:40:16;1.80;;;1.23;;
17842;SDS011;69286;48.222;16.332;2023-04-24T09:42:45;1.10;;;1.10;;
17842;SDS011;69286;48.222;16.332;2023-04-24T09:45:13;1.27;;;1.17;;
17842;SDS011;69286;48.222;16.332;2023-04-24T09:47:40;1.40;;;1.30;;
17842;SDS011;69286;48.222;16.332;2023-04-24T09:50:12;1.37;;;1.27;;
17842;SDS011;69286;48.222;16.332;2023-04-24T09:52:41;2.90;;;1.20;;
17842;SDS011;69286;48.222;16.332;2023-04-24T09:55:13;1.43;;;1.30;;
17842;SDS011;69286;48.222;16.332;2023-04-24T09:57:49;1.40;;;1.30;;
17842;SDS011;69286;48.222;16.332;2023-04-24T10:00:18;1.67;;;1.57;;
17842;SDS011;69286;48.222;16.332;2023-04-24T10:02:51;1.40;;;1.27;;
17842;SDS011;69286;48.222;16.332;2023-04-24T10:05:27;1.30;;;1.20;;
17842;SDS011;69286;48.222;16.332;2023-04-24T10:07:59;1.40;;;1.30;;
17842;SDS011;69286;48.222;16.332;2023-04-24T10:10:29;2.10;;;1.50;;
17842;SDS011;69286;48.222;16.332;2023-04-24T10:12:57;2.70;;;1.57;;
17842;SDS011;69286;48.222;16.332;2023-04-24T10:15:28;3.53;;;1.30;;
17842;SDS011;69286;48.222;16.332;2023-04-24T10:17:55;1.27;;;1.10;;
17842;SDS011;69286;48.222;16.332;2023-04-24T10:20:25;1.40;;;1.30;;
17842;SDS011;69286;48.222;16.332;2023-04-24T10:22:54;1.30;;;1.20;;
17842;SDS011;69286;48.222;16.332;2023-04-24T10:25:23;1.50;;;1.40;;
17842;SDS011;69286;48.222;16.332;2023-04-24T10:27:52;1.40;;;1.30;;
17842;SDS011;69286;48.222;16.332;2023-04-24T10:30:22;8.03;;;1.30;;
17842;SDS011;69286;48.222;16.332;2023-04-24T10:32:49;1.63;;;1.30;;
17842;SDS011;69286;48.222;16.332;2023-04-24T10:35:17;1.50;;;1.37;;
17842;SDS011;69286;48.222;16.332;2023-04-24T10:37:48;1.40;;;1.30;;
17842;SDS011;69286;48.222;16.332;2023-04-24T10:40:17;2.73;;;1.40;;
17842;SDS011;69286;48.222;16.332;2023-04-24T10:42:53;1.57;;;1.47;;
17842;SDS011;69286;48.222;16.332;2023-04-24T10:45:20;2.07;;;1.40;;
17842;SDS011;69286;48.222;16.332;2023-04-24T10:47:52;1.60;;;1.50;;
17842;SDS011;69286;48.222;16.332;2023-04-24T10:50:23;1.40;;;1.30;;
17842;SDS011;69286;48.222;16.332;2023-04-24T10:52:52;3.23;;;1.57;;
17842;SDS011;69286;48.222;16.332;2023-04-24T10:58:11;1.40;;;1.30;;
17842;SDS011;69286;48.222;16.332;2023-04-24T11:00:38;2.93;;;1.40;;
17842;SDS011;69286;48.222;16.332;2023-04-24T11:03:06;3.83;;;1.37;;
17842;SDS011;69286;48.222;16.332;2023-04-24T11:08:38;2.93;;;1.60;;
17842;SDS011;69286;48.222;16.332;2023-04-24T11:11:09;1.50;;;1.40;;
17842;SDS011;69286;48.222;16.332;2023-04-24T11:16:32;2.23;;;2.00;;
17842;SDS011;69286;48.222;16.332;2023-04-24T11:19:00;2.20;;;1.80;;
17842;SDS011;69286;48.222;16.332;2023-04-24T11:21:30;1.80;;;1.50;;
17842;SDS011;69286;48.222;16.332;2023-04-24T11:23:58;1.30;;;1.20;;
17842;SDS011;69286;48.222;16.332;2023-04-24T11:26:45;3.93;;;1.53;;
17842;SDS011;69286;48.222;16.332;2023-04-24T11:29:13;1.50;;;1.40;;
17842;SDS011;69286;48.222;16.332;2023-04-24T11:31:41;3.37;;;1.70;;
17842;SDS011;69286;48.222;16.332;2023-04-24T11:34:14;1.50;;;1.40;;
17842;SDS011;69286;48.222;16.332;2023-04-24T11:36:42;6.87;;;1.77;;
17842;SDS011;69286;48.222;16.332;2023-04-24T11:39:10;2.67;;;1.90;;
17842;SDS011;69286;48.222;16.332;2023-04-24T11:41:38;2.20;;;1.83;;
17842;SDS011;69286;48.222;16.332;2023-04-24T11:44:06;1.50;;;1.40;;
17842;SDS011;69286;48.222;16.332;2023-04-24T11:46:35;2.13;;;1.77;;
17842;SDS011;69286;48.222;16.332;2023-04-24T11:49:05;4.97;;;1.50;;
17842;SDS011;69286;48.222;16.332;2023-04-24T11:51:32;1.87;;;1.70;;
17842;SDS011;69286;48.222;16.332;2023-04-24T11:54:00;1.73;;;1.50;;
17842;SDS011;69286;48.222;16.332;2023-04-24T11:56:28;1.50;;;1.40;;
17842;SDS011;69286;48.222;16.332;2023-04-24T11:58:55;5.43;;;1.60;;
17842;SDS011;69286;48.222;16.332;2023-04-24T12:01:22;3.90;;;1.60;;
17842;SDS011;69286;48.222;16.332;2023-04-24T12:03:51;1.80;;;1.70;;
17842;SDS011;69286;48.222;16.332;2023-04-24T12:06:26;2.57;;;1.70;;
17842;SDS011;69286;48.222;16.332;2023-04-24T12:08:53;1.90;;;1.60;;
17842;SDS011;69286;48.222;16.332;2023-04-24T12:11:22;1.73;;;1.57;;
17842;SDS011;69286;48.222;16.332;2023-04-24T12:13:52;2.93;;;1.77;;
17842;SDS011;69286;48.222;16.332;2023-04-24T12:16:19;1.60;;;1.50;;
17842;SDS011;69286;48.222;16.332;2023-04-24T12:18:46;1.50;;;1.40;;
17842;SDS011;69286;48.222;16.332;2023-04-24T12:21:18;1.90;;;1.50;;
17842;SDS011;69286;48.222;16.332;2023-04-24T12:23:47;2.20;;;1.60;;
17842;SDS011;69286;48.222;16.332;2023-04-24T12:26:17;2.03;;;1.80;;
17842;SDS011;69286;48.222;16.332;2023-04-24T12:28:46;2.43;;;2.20;;
17842;SDS011;69286;48.222;16.332;2023-04-24T12:31:15;2.00;;;1.67;;
17842;SDS011;69286;48.222;16.332;2023-04-24T12:33:42;1.60;;;1.50;;
17842;SDS011;69286;48.222;16.332;2023-04-24T12:36:10;3.00;;;1.70;;
17842;SDS011;69286;48.222;16.332;2023-04-24T12:38:39;2.43;;;1.53;;
17842;SDS011;69286;48.222;16.332;2023-04-24T12:41:11;1.70;;;1.60;;
17842;SDS011;69286;48.222;16.332;2023-04-24T12:43:50;5.53;;;2.33;;
17842;SDS011;69286;48.222;16.332;2023-04-24T12:46:17;3.60;;;1.60;;
17842;SDS011;69286;48.222;16.332;2023-04-24T12:48:45;2.03;;;1.67;;
17842;SDS011;69286;48.222;16.332;2023-04-24T12:51:12;1.83;;;1.67;;
17842;SDS011;69286;48.222;16.332;2023-04-24T12:53:40;2.17;;;1.67;;
17842;SDS011;69286;48.222;16.332;2023-04-24T12:56:07;2.27;;;1.63;;
17842;SDS011;69286;48.222;16.332;2023-04-24T12:58:34;2.17;;;1.90;;
17842;SDS011;69286;48.222;16.332;2023-04-24T13:01:01;1.97;;;1.60;;
17842;SDS011;69286;48.222;16.332;2023-04-24T13:03:28;3.10;;;1.60;;
17842;SDS011;69286;48.222;16.332;2023-04-24T13:05:55;2.20;;;2.00;;
17842;SDS011;69286;48.222;16.332;2023-04-24T13:08:22;1.87;;;1.70;;
17842;SDS011;69286;48.222;16.332;2023-04-24T13:10:51;1.70;;;1.60;;
17842;SDS011;69286;48.222;16.332;2023-04-24T13:13:19;1.90;;;1.80;;
17842;SDS011;69286;48.222;16.332;2023-04-24T13:15:47;3.07;;;1.70;;
17842;SDS011;69286;48.222;16.332;2023-04-24T13:18:14;1.93;;;1.73;;
17842;SDS011;69286;48.222;16.332;2023-04-24T13:20:41;3.83;;;2.00;;
17842;SDS011;69286;48.222;16.332;2023-04-24T13:23:09;1.70;;;1.53;;
17842;SDS011;69286;48.222;16.332;2023-04-24T13:25:36;1.43;;;1.20;;
17842;SDS011;69286;48.222;16.332;2023-04-24T13:28:05;2.03;;;1.70;;
17842;SDS011;69286;48.222;16.332;2023-04-24T13:30:32;1.63;;;1.53;;
17842;SDS011;69286;48.222;16.332;2023-04-24T13:32:59;1.67;;;1.57;;
17842;SDS011;69286;48.222;16.332;2023-04-24T13:35:27;1.70;;;1.60;;
17842;SDS011;69286;48.222;16.332;2023-04-24T13:37:54;1.70;;;1.60;;
17842;SDS011;69286;48.222;16.332;2023-04-24T13:40:21;2.03;;;1.93;;
17842;SDS011;69286;48.222;16.332;2023-04-24T13:42:48;2.60;;;2.03;;
17842;SDS011;69286;48.222;16.332;2023-04-24T13:45:17;4.50;;;2.13;;
17842;SDS011;69286;48.222;16.332;2023-04-24T13:47:44;2.30;;;2.10;;
17842;SDS011;69286;48.222;16.332;2023-04-24T13:50:11;3.17;;;1.77;;
17842;SDS011;69286;48.222;16.332;2023-04-24T13:52:38;1.70;;;1.60;;
17842;SDS011;69286;48.222;16.332;2023-04-24T13:55:06;2.20;;;1.70;;
17842;SDS011;69286;48.222;16.332;2023-04-24T13:57:33;3.00;;;1.73;;
17842;SDS011;69286;48.222;16.332;2023-04-24T14:00:00;3.60;;;1.80;;
17842;SDS011;69286;48.222;16.332;2023-04-24T14:02:30;2.67;;;1.50;;
17842;SDS011;69286;48.222;16.332;2023-04-24T14:04:57;1.63;;;1.53;;
17842;SDS011;69286;48.222;16.332;2023-04-24T14:07:24;1.57;;;1.47;;
17842;SDS011;69286;48.222;16.332;2023-04-24T14:09:51;2.97;;;1.60;;
17842;SDS011;69286;48.222;16.332;2023-04-24T14:12:18;1.60;;;1.50;;
17842;SDS011;69286;48.222;16.332;2023-04-24T14:14:46;2.70;;;1.70;;
17842;SDS011;69286;48.222;16.332;2023-04-24T14:17:13;2.97;;;1.37;;
17842;SDS011;69286;48.222;16.332;2023-04-24T14:19:41;2.40;;;1.60;;
17842;SDS011;69286;48.222;16.332;2023-04-24T14:22:09;2.00;;;1.70;;
17842;SDS011;69286;48.222;16.332;2023-04-24T14:24:36;1.63;;;1.40;;
17842;SDS011;69286;48.222;16.332;2023-04-24T14:27:03;1.70;;;1.60;;
17842;SDS011;69286;48.222;16.332;2023-04-24T14:29:30;1.50;;;1.40;;
17842;SDS011;69286;48.222;16.332;2023-04-24T14:31:57;1.70;;;1.60;;
17842;SDS011;69286;48.222;16.332;2023-04-24T14:34:24;2.97;;;1.70;;
17842;SDS011;69286;48.222;16.332;2023-04-24T14:36:53;1.80;;;1.70;;
17842;SDS011;69286;48.222;16.332;2023-04-24T14:39:20;1.60;;;1.50;;
17842;SDS011;69286;48.222;16.332;2023-04-24T14:41:47;1.90;;;1.67;;
17842;SDS011;69286;48.222;16.332;2023-04-24T14:44:14;3.00;;;1.40;;
17842;SDS011;69286;48.222;16.332;2023-04-24T14:46:41;2.20;;;1.87;;